Time;durP1;ratioP1;P1;durP2;ratioP2;P2;SDS_P1;SDS_P2;PMS_P1;PMS_P2;Temp;Humidity;BMP_temperature;BMP_pressure;BME280_temperature;BME280_humidity;BME280_pressure;Samples;Min_cycle;Max_cycle;Signal;HPM_P1;HPM_P2
2022/04/29 00:02:15;;;;;;;14.18;5.70;;;7.40;99.90;;;;;;5053312;28;20043;-46
2022/04/29 00:04:42;;;;;;;19.13;5.75;;;7.40;99.90;;;;;;5050841;28;20091;-47
2022/04/29 00:07:09;;;;;;;14.50;6.00;;;7.50;99.90;;;;;;5050587;28;20041;-50
2022/04/29 00:09:36;;;;;;;14.95;5.80;;;7.40;99.90;;;;;;5050911;28;20068;-45
2022/04/29 00:12:03;;;;;;;13.25;6.43;;;7.30;99.90;;;;;;5050701;28;20103;-46
2022/04/29 00:14:30;;;;;;;14.23;6.20;;;7.30;99.90;;;;;;5051275;28;20059;-47
2022/04/29 00:16:56;;;;;;;16.15;6.43;;;7.20;99.90;;;;;;5050658;28;20071;-49
2022/04/29 00:19:22;;;;;;;13.32;5.82;;;7.10;99.90;;;;;;5032279;28;20080;-45
2022/04/29 00:21:48;;;;;;;13.63;5.65;;;7.10;99.90;;;;;;5050870;28;20029;-47
2022/04/29 00:24:14;;;;;;;13.27;6.20;;;7.10;99.90;;;;;;5050680;28;20056;-48
2022/04/29 00:26:40;;;;;;;16.33;5.93;;;7.10;99.90;;;;;;5032523;28;20197;-47
2022/04/29 00:29:07;;;;;;;11.63;6.03;;;7.10;99.90;;;;;;5050663;28;20124;-48
2022/04/29 00:31:33;;;;;;;11.85;6.65;;;7.10;99.90;;;;;;5050416;28;20048;-46
2022/04/29 00:33:59;;;;;;;14.73;6.30;;;7.00;99.90;;;;;;5050535;28;20049;-50
2022/04/29 00:36:25;;;;;;;14.95;6.78;;;7.10;99.90;;;;;;5050558;28;20037;-45
2022/04/29 00:38:51;;;;;;;15.77;6.22;;;7.10;99.90;;;;;;5050336;28;20127;-46
2022/04/29 00:41:18;;;;;;;12.95;6.47;;;7.20;99.90;;;;;;5050345;28;20388;-46
2022/04/29 00:43:45;;;;;;;16.02;6.22;;;7.10;99.90;;;;;;5050114;28;20579;-48
2022/04/29 00:46:11;;;;;;;17.08;7.20;;;7.10;99.90;;;;;;5050569;28;20044;-46
2022/04/29 00:48:36;;;;;;;14.82;6.28;;;7.20;99.90;;;;;;5049974;28;20037;-46
2022/04/29 00:51:03;;;;;;;15.63;6.60;;;7.10;99.90;;;;;;5050252;28;20037;-45
2022/04/29 00:53:29;;;;;;;14.90;6.57;;;7.10;99.90;;;;;;5050410;28;20055;-46
2022/04/29 00:55:57;;;;;;;11.25;6.65;;;7.30;99.90;;;;;;5050134;28;20043;-48
2022/04/29 00:58:37;;;;;;;17.13;6.93;;;7.20;99.90;;;;;;5050128;28;20044;-48
2022/04/29 01:01:03;;;;;;;15.30;6.90;;;7.20;99.90;;;;;;5050934;28;20033;-46
2022/04/29 01:03:30;;;;;;;15.68;6.90;;;7.10;99.90;;;;;;5054224;28;20159;-48
2022/04/29 01:05:56;;;;;;;12.55;6.97;;;7.20;99.90;;;;;;5054467;28;20035;-45
2022/04/29 01:08:22;;;;;;;17.13;6.60;;;7.00;99.90;;;;;;5054189;28;20040;-47
2022/04/29 01:10:48;;;;;;;15.00;7.18;;;7.00;99.90;;;;;;5054008;28;20063;-47
2022/04/29 01:13:16;;;;;;;14.50;6.97;;;7.00;99.90;;;;;;5054053;28;20114;-46
2022/04/29 01:15:42;;;;;;;12.15;6.78;;;7.00;99.90;;;;;;5054444;28;20036;-47
2022/04/29 01:18:09;;;;;;;18.08;7.10;;;7.00;99.90;;;;;;5054278;28;20045;-48
2022/04/29 01:20:35;;;;;;;15.02;7.05;;;7.00;99.90;;;;;;5053598;28;20094;-50
2022/04/29 01:23:09;;;;;;;17.98;7.40;;;7.00;99.90;;;;;;5054015;28;20439;-46
2022/04/29 01:25:35;;;;;;;14.82;6.78;;;6.90;99.90;;;;;;5054241;28;20044;-47
2022/04/29 01:28:00;;;;;;;12.38;6.85;;;6.90;99.90;;;;;;5053990;28;20029;-46
2022/04/29 01:30:26;;;;;;;13.98;7.32;;;6.80;99.90;;;;;;5053850;28;20049;-45
2022/04/29 01:32:55;;;;;;;17.00;7.47;;;6.80;99.90;;;;;;5035826;28;20059;-45
2022/04/29 01:35:21;;;;;;;13.05;7.43;;;6.80;99.90;;;;;;5053850;28;20403;-46
2022/04/29 01:37:48;;;;;;;19.33;8.45;;;6.80;99.90;;;;;;5053539;28;20048;-46
2022/04/29 01:40:14;;;;;;;17.30;8.02;;;6.70;99.90;;;;;;5053506;28;20044;-45
2022/04/29 01:42:41;;;;;;;17.80;7.47;;;6.80;99.90;;;;;;5053638;28;20064;-46
2022/04/29 01:45:08;;;;;;;13.52;7.45;;;6.80;99.90;;;;;;5053126;28;20091;-48
2022/04/29 01:47:34;;;;;;;14.60;8.10;;;6.70;99.90;;;;;;5053462;28;20041;-47
2022/04/29 01:50:01;;;;;;;15.45;8.02;;;6.70;99.90;;;;;;5052777;28;20117;-47
2022/04/29 01:52:26;;;;;;;15.77;8.43;;;6.70;99.90;;;;;;5053372;28;20045;-48
2022/04/29 01:54:52;;;;;;;16.52;8.10;;;6.70;99.90;;;;;;5053317;28;20445;-47
2022/04/29 01:57:17;;;;;;;16.33;8.35;;;6.70;99.90;;;;;;5053371;28;20043;-48
2022/04/29 01:59:43;;;;;;;17.20;7.60;;;6.60;99.90;;;;;;5053297;28;20041;-47
2022/04/29 02:02:09;;;;;;;16.90;8.40;;;6.50;99.90;;;;;;5053462;28;20041;-47
2022/04/29 02:04:35;;;;;;;18.20;8.60;;;6.50;99.90;;;;;;5053045;28;20041;-47
2022/04/29 02:07:05;;;;;;;17.08;8.23;;;6.60;99.90;;;;;;5053122;28;20044;-48
2022/04/29 02:09:31;;;;;;;18.15;9.30;;;6.60;99.90;;;;;;5052898;28;20403;-47
2022/04/29 02:12:05;;;;;;;16.38;8.20;;;6.60;99.90;;;;;;5035166;28;20044;-45
2022/04/29 02:14:39;;;;;;;16.55;8.15;;;6.60;99.90;;;;;;5052221;28;20053;-46
2022/04/29 02:17:07;;;;;;;18.42;8.75;;;6.60;99.90;;;;;;5052905;28;20033;-47
2022/04/29 02:19:34;;;;;;;13.95;8.27;;;6.40;99.90;;;;;;5052041;28;20502;-48
2022/04/29 02:22:01;;;;;;;18.48;8.75;;;6.40;99.90;;;;;;5034959;28;20123;-48
2022/04/29 02:24:27;;;;;;;16.73;8.45;;;6.40;99.90;;;;;;5052777;28;20036;-45
2022/04/29 02:26:53;;;;;;;15.88;8.30;;;6.30;99.90;;;;;;5052576;28;20163;-46
2022/04/29 02:29:20;;;;;;;17.55;8.30;;;6.30;99.90;;;;;;5052816;28;20044;-45
2022/04/29 02:31:46;;;;;;;17.52;8.20;;;6.20;99.90;;;;;;5034799;28;20041;-46
2022/04/29 02:34:12;;;;;;;17.52;8.48;;;6.30;99.90;;;;;;5052438;28;20052;-46
2022/04/29 02:36:40;;;;;;;17.88;8.93;;;6.30;99.90;;;;;;5052489;28;20049;-49
2022/04/29 02:39:06;;;;;;;12.35;8.00;;;6.40;99.90;;;;;;5034426;28;20049;-48
2022/04/29 02:41:31;;;;;;;17.77;9.30;;;6.40;99.90;;;;;;5034908;28;20044;-47
2022/04/29 02:43:57;;;;;;;16.15;8.02;;;6.40;99.90;;;;;;5052047;28;20052;-48
2022/04/29 02:46:23;;;;;;;17.02;9.07;;;6.30;99.90;;;;;;5052643;28;20504;-49
2022/04/29 02:48:48;;;;;;;17.13;8.45;;;6.30;99.90;;;;;;5051555;28;20041;-49
2022/04/29 02:51:15;;;;;;;15.20;8.80;;;6.20;99.90;;;;;;5052403;28;20044;-48
2022/04/29 02:53:42;;;;;;;17.17;8.65;;;6.30;99.90;;;;;;5052169;28;20049;-47
2022/04/29 02:56:08;;;;;;;20.90;9.27;;;6.30;99.90;;;;;;5034232;28;20041;-47
2022/04/29 02:58:33;;;;;;;18.40;8.25;;;6.30;99.90;;;;;;5052184;28;20047;-49
2022/04/29 03:00:59;;;;;;;16.80;7.82;;;6.30;99.90;;;;;;5051966;28;20040;-48
2022/04/29 03:03:25;;;;;;;19.05;7.90;;;6.30;99.90;;;;;;5052304;28;20037;-48
2022/04/29 03:05:50;;;;;;;13.55;8.05;;;6.30;99.90;;;;;;5052224;28;20148;-46
2022/04/29 03:08:16;;;;;;;19.10;8.43;;;6.20;99.90;;;;;;5051892;28;20105;-47
2022/04/29 03:10:42;;;;;;;14.77;7.60;;;6.30;99.90;;;;;;5052034;28;20041;-45
2022/04/29 03:13:07;;;;;;;15.85;8.20;;;6.40;99.90;;;;;;5055909;28;20037;-48
2022/04/29 03:15:34;;;;;;;18.80;8.63;;;6.40;99.90;;;;;;5038330;28;20055;-47
2022/04/29 03:18:20;;;;;;;14.82;8.20;;;6.30;99.90;;;;;;5064969;28;20055;-46
2022/04/29 03:20:48;;;;;;;15.50;8.00;;;6.30;99.90;;;;;;5069903;28;20044;-47
2022/04/29 03:23:14;;;;;;;16.75;8.77;;;6.20;99.90;;;;;;5068198;28;20048;-45
2022/04/29 03:25:40;;;;;;;14.05;7.93;;;6.10;99.90;;;;;;5068795;28;20174;-45
2022/04/29 03:28:06;;;;;;;18.50;8.38;;;6.10;99.90;;;;;;5071447;28;20063;-46
2022/04/29 03:30:32;;;;;;;19.42;8.90;;;6.20;99.90;;;;;;5071599;28;20414;-48
2022/04/29 03:33:00;;;;;;;19.90;8.23;;;6.20;99.90;;;;;;5069942;28;20083;-47
2022/04/29 03:35:26;;;;;;;15.30;8.35;;;6.30;99.90;;;;;;5071586;28;20056;-47
2022/04/29 03:37:53;;;;;;;17.23;8.90;;;6.30;99.90;;;;;;5071147;28;20052;-47
2022/04/29 03:40:23;;;;;;;18.40;8.27;;;6.30;99.90;;;;;;5057758;28;20051;-47
2022/04/29 03:42:53;;;;;;;19.15;9.02;;;6.30;99.90;;;;;;5066554;28;20036;-49
2022/04/29 03:45:22;;;;;;;16.85;9.18;;;6.20;99.90;;;;;;5067938;28;20106;-48
2022/04/29 03:47:48;;;;;;;17.75;9.18;;;6.20;99.90;;;;;;5069411;28;20372;-46
2022/04/29 03:50:14;;;;;;;17.80;9.27;;;6.10;99.90;;;;;;5068119;28;20047;-47
2022/04/29 03:52:52;;;;;;;18.55;8.68;;;6.00;99.90;;;;;;5070494;28;20044;-48
2022/04/29 03:55:23;;;;;;;18.48;9.50;;;5.90;99.90;;;;;;5070928;28;20044;-46
2022/04/29 03:57:50;;;;;;;19.55;9.50;;;5.90;99.90;;;;;;5070899;28;20514;-47
2022/04/29 04:00:16;;;;;;;16.88;9.07;;;5.90;99.90;;;;;;5070888;28;20047;-47
2022/04/29 04:02:42;;;;;;;18.92;9.68;;;5.90;99.90;;;;;;5071165;28;20483;-48
2022/04/29 04:05:09;;;;;;;14.55;8.98;;;5.80;99.90;;;;;;5070942;28;20522;-47
2022/04/29 04:07:36;;;;;;;21.35;9.32;;;5.80;99.90;;;;;;5070723;28;20032;-47
2022/04/29 04:10:03;;;;;;;16.83;9.18;;;5.80;99.90;;;;;;5070673;28;20044;-47
2022/04/29 04:12:51;;;;;;;17.90;9.30;;;5.80;99.90;;;;;;5070950;28;20093;-48
2022/04/29 04:15:19;;;;;;;18.88;8.90;;;5.80;99.90;;;;;;5070922;28;20053;-45
2022/04/29 04:17:46;;;;;;;19.25;9.07;;;5.80;99.90;;;;;;5070599;28;20040;-46
2022/04/29 04:20:13;;;;;;;19.35;9.45;;;5.90;99.90;;;;;;5069908;28;20120;-45
2022/04/29 04:22:39;;;;;;;17.63;9.00;;;6.00;99.90;;;;;;5071067;28;20123;-48
2022/04/29 04:25:06;;;;;;;16.90;9.57;;;5.90;99.90;;;;;;5056076;28;20145;-47
2022/04/29 04:27:32;;;;;;;22.88;9.23;;;6.00;99.90;;;;;;5050751;28;20041;-47
2022/04/29 04:29:59;;;;;;;18.27;9.85;;;6.10;99.90;;;;;;5050659;28;20048;-48
2022/04/29 04:32:26;;;;;;;19.15;8.75;;;6.10;99.90;;;;;;5050642;28;20045;-45
2022/04/29 04:34:57;;;;;;;17.63;8.68;;;6.10;99.90;;;;;;5050233;28;20037;-47
2022/04/29 04:37:25;;;;;;;20.15;9.10;;;6.10;99.90;;;;;;5050038;28;20095;-47
2022/04/29 04:39:51;;;;;;;17.77;9.10;;;6.20;99.90;;;;;;5050221;28;20166;-46
2022/04/29 04:42:18;;;;;;;17.42;8.85;;;6.20;99.90;;;;;;5050336;28;20033;-49
2022/04/29 04:44:47;;;;;;;19.63;9.50;;;6.20;99.90;;;;;;5032289;28;20044;-48
2022/04/29 04:47:13;;;;;;;20.17;10.43;;;6.30;99.90;;;;;;5050650;28;20396;-46
2022/04/29 04:49:38;;;;;;;18.75;9.13;;;6.30;99.90;;;;;;5049918;28;20068;-48
2022/04/29 04:52:05;;;;;;;19.48;9.27;;;6.40;99.90;;;;;;5050385;28;20113;-47
2022/04/29 04:54:31;;;;;;;15.68;8.73;;;6.40;99.90;;;;;;5050126;28;20036;-46
2022/04/29 04:56:56;;;;;;;16.98;9.07;;;6.30;99.90;;;;;;5050600;28;20044;-47
2022/04/29 04:59:22;;;;;;;15.23;8.68;;;6.40;99.90;;;;;;5050345;28;20056;-50
2022/04/29 05:01:48;;;;;;;15.90;9.48;;;6.40;99.90;;;;;;5032173;28;20033;-48
2022/04/29 05:04:13;;;;;;;18.52;8.38;;;6.40;99.90;;;;;;5050055;28;20045;-45
2022/04/29 05:06:40;;;;;;;20.05;9.63;;;6.40;99.90;;;;;;5032171;28;20037;-45
2022/04/29 05:09:06;;;;;;;19.83;8.90;;;6.40;99.90;;;;;;5050406;28;20041;-47
2022/04/29 05:11:32;;;;;;;16.55;8.52;;;6.40;99.90;;;;;;5049991;28;20072;-45
2022/04/29 05:13:58;;;;;;;17.95;9.02;;;6.50;99.90;;;;;;5050035;28;20500;-46
2022/04/29 05:16:24;;;;;;;15.68;7.97;;;6.40;99.90;;;;;;5050022;28;20048;-47
2022/04/29 05:18:50;;;;;;;16.67;8.70;;;6.50;99.90;;;;;;5049490;28;20124;-47
2022/04/29 05:21:16;;;;;;;19.55;9.38;;;6.50;99.90;;;;;;5050291;28;20478;-48
2022/04/29 05:23:43;;;;;;;17.17;9.30;;;6.60;99.90;;;;;;5050100;28;20037;-50
2022/04/29 05:26:09;;;;;;;18.02;8.63;;;6.60;99.90;;;;;;5032215;28;20485;-46
2022/04/29 05:28:35;;;;;;;14.88;8.93;;;6.60;99.90;;;;;;5050017;28;20116;-47
2022/04/29 05:31:01;;;;;;;19.50;9.25;;;6.60;99.90;;;;;;5050045;28;20100;-47
2022/04/29 05:33:27;;;;;;;18.48;8.68;;;6.70;99.90;;;;;;5048912;28;20595;-47
2022/04/29 05:35:53;;;;;;;17.08;8.48;;;6.70;99.90;;;;;;5055425;28;20518;-49
2022/04/29 05:38:19;;;;;;;16.67;8.70;;;6.70;99.90;;;;;;5054461;28;20040;-46
2022/04/29 05:43:30;;;;;;;;;;;6.80;99.90;;;;;;5054014;28;20211;-49
2022/04/29 05:45:56;;;;;;;17.88;8.45;;;6.80;99.90;;;;;;5035554;28;19924;-47
2022/04/29 05:48:22;;;;;;;14.00;7.90;;;6.70;99.90;;;;;;5052800;28;20039;-45
2022/04/29 05:50:48;;;;;;;16.50;9.15;;;6.80;99.90;;;;;;5055971;28;20044;-45
2022/04/29 05:53:15;;;;;;;15.18;8.18;;;6.90;99.90;;;;;;5058019;28;20051;-46
2022/04/29 05:55:43;;;;;;;16.80;8.57;;;7.00;99.90;;;;;;5038594;28;20044;-47
2022/04/29 05:58:09;;;;;;;17.20;8.20;;;7.00;99.90;;;;;;5054311;28;20493;-47
2022/04/29 06:00:35;;;;;;;14.77;8.27;;;7.00;99.90;;;;;;5055382;28;20123;-45
2022/04/29 06:03:01;;;;;;;16.02;8.30;;;7.10;99.90;;;;;;5052051;28;20095;-47
2022/04/29 06:05:27;;;;;;;15.25;7.60;;;7.00;99.90;;;;;;5053804;28;20387;-50
2022/04/29 06:07:54;;;;;;;13.63;7.85;;;7.10;99.90;;;;;;5052022;28;20044;-46
2022/04/29 06:10:20;;;;;;;18.15;8.50;;;7.20;99.90;;;;;;5051740;28;20041;-46
2022/04/29 06:12:46;;;;;;;16.95;8.95;;;7.20;99.90;;;;;;5049730;28;21433;-45
2022/04/29 06:15:19;;;;;;;16.35;8.95;;;7.30;99.90;;;;;;5050591;28;20041;-51
2022/04/29 06:17:45;;;;;;;17.52;8.40;;;7.20;99.90;;;;;;5052983;28;20039;-44
2022/04/29 06:20:11;;;;;;;14.70;7.93;;;7.30;99.90;;;;;;5048748;28;20428;-47
2022/04/29 06:22:47;;;;;;;16.58;8.10;;;7.30;99.90;;;;;;5048874;28;20036;-48
2022/04/29 06:25:12;;;;;;;15.95;8.07;;;7.40;99.90;;;;;;5052231;28;20032;-47
2022/04/29 06:27:38;;;;;;;14.25;8.18;;;7.40;99.90;;;;;;5050755;28;20033;-46
2022/04/29 06:30:05;;;;;;;17.25;8.35;;;7.50;99.90;;;;;;5050758;28;20400;-47
2022/04/29 06:32:31;;;;;;;15.65;8.90;;;7.50;99.90;;;;;;5052731;28;20040;-48
2022/04/29 06:34:56;;;;;;;16.02;8.02;;;7.50;99.90;;;;;;5052232;28;20036;-48
2022/04/29 06:37:22;;;;;;;15.65;8.43;;;7.60;99.90;;;;;;5051680;28;20041;-47
2022/04/29 06:39:48;;;;;;;18.17;8.60;;;7.60;99.90;;;;;;5056468;28;20041;-49
2022/04/29 06:42:13;;;;;;;15.35;8.63;;;7.60;99.90;;;;;;5048746;28;20495;-46
2022/04/29 06:44:39;;;;;;;17.75;7.85;;;7.60;99.90;;;;;;5048703;28;20512;-46
2022/04/29 06:47:05;;;;;;;14.13;7.63;;;7.60;99.90;;;;;;5051908;28;20372;-47
2022/04/29 06:49:31;;;;;;;15.88;8.50;;;7.60;99.90;;;;;;5048201;28;20102;-52
2022/04/29 06:51:57;;;;;;;14.75;8.52;;;7.70;99.90;;;;;;5048656;28;20040;-45
2022/04/29 06:54:22;;;;;;;15.63;7.97;;;7.70;99.90;;;;;;5051940;28;20500;-46
2022/04/29 06:56:48;;;;;;;16.52;8.60;;;7.80;99.90;;;;;;5051807;28;20039;-45
2022/04/29 06:59:13;;;;;;;18.98;8.77;;;7.80;99.90;;;;;;5049371;28;20862;-48
2022/04/29 07:01:39;;;;;;;19.15;8.73;;;7.90;99.90;;;;;;5050720;28;20536;-46
2022/04/29 07:04:05;;;;;;;18.92;8.50;;;7.90;99.90;;;;;;5050055;28;20039;-47
2022/04/29 07:06:32;;;;;;;16.80;9.15;;;7.90;99.90;;;;;;5051973;28;20037;-47
2022/04/29 07:08:58;;;;;;;16.02;8.75;;;8.00;99.90;;;;;;5050033;28;20029;-49
2022/04/29 07:11:25;;;;;;;16.67;8.52;;;8.10;99.90;;;;;;5049747;28;20035;-51
2022/04/29 07:13:52;;;;;;;18.35;8.32;;;8.10;99.90;;;;;;5052975;28;20037;-48
2022/04/29 07:16:18;;;;;;;19.90;9.52;;;8.10;99.90;;;;;;5051512;28;20045;-46
2022/04/29 07:18:44;;;;;;;17.10;9.15;;;8.20;99.90;;;;;;5051032;28;20412;-49
2022/04/29 07:21:10;;;;;;;17.13;8.25;;;8.20;99.90;;;;;;5032882;28;20033;-48
2022/04/29 07:23:36;;;;;;;17.58;8.63;;;8.30;99.90;;;;;;5050866;28;20420;-46
2022/04/29 07:26:02;;;;;;;14.13;8.13;;;8.40;99.90;;;;;;5048396;28;20038;-46
2022/04/29 07:28:28;;;;;;;17.17;7.78;;;8.40;99.90;;;;;;5049608;28;20043;-47
2022/04/29 07:30:56;;;;;;;15.63;7.70;;;8.40;99.90;;;;;;5035072;28;20037;-47
2022/04/29 07:33:23;;;;;;;15.15;8.02;;;8.40;99.90;;;;;;5047519;28;20053;-47
2022/04/29 07:44:02;;;;;;;14.40;7.00;;;8.60;99.90;;;;;;5049045;28;20052;-46
2022/04/29 07:46:28;;;;;;;12.45;7.03;;;8.70;99.90;;;;;;5050318;28;20435;-49
2022/04/29 07:48:54;;;;;;;13.80;6.60;;;8.70;99.90;;;;;;5048543;28;20040;-49
2022/04/29 07:51:19;;;;;;;15.15;6.53;;;8.80;99.90;;;;;;5047540;28;20036;-46
2022/04/29 07:53:45;;;;;;;10.02;6.03;;;9.00;99.90;;;;;;5050781;28;20094;-49
2022/04/29 07:56:11;;;;;;;10.45;5.65;;;9.10;99.90;;;;;;5047076;28;20036;-46
2022/04/29 07:58:38;;;;;;;12.23;5.68;;;9.30;99.90;;;;;;5050047;28;20033;-48
2022/04/29 08:01:09;;;;;;;10.57;5.47;;;9.30;99.90;;;;;;5049626;28;20083;-46
2022/04/29 08:03:36;;;;;;;9.18;5.18;;;9.40;99.90;;;;;;5053088;28;20028;-48
2022/04/29 08:06:03;;;;;;;12.30;5.15;;;9.50;99.90;;;;;;5049424;28;20045;-47
2022/04/29 08:08:29;;;;;;;11.98;5.68;;;9.60;99.90;;;;;;5049569;28;20536;-45
2022/04/29 08:10:55;;;;;;;15.30;5.53;;;9.80;99.90;;;;;;5049607;28;20076;-50
2022/04/29 08:13:22;;;;;;;11.02;5.32;;;10.10;99.90;;;;;;5028568;28;20069;-45
2022/04/29 08:15:50;;;;;;;11.27;5.03;;;10.20;99.90;;;;;;5052252;28;20033;-49
2022/04/29 08:18:16;;;;;;;10.23;4.50;;;10.50;99.90;;;;;;5049518;28;20032;-48
2022/04/29 08:20:43;;;;;;;8.90;4.72;;;10.50;99.90;;;;;;5052435;28;20037;-52
2022/04/29 08:23:09;;;;;;;7.80;4.60;;;10.70;99.90;;;;;;5051630;28;20492;-51
2022/04/29 08:25:35;;;;;;;9.45;4.63;;;11.00;99.90;;;;;;5027591;28;20045;-51
2022/04/29 08:28:02;;;;;;;9.68;4.95;;;11.00;99.90;;;;;;5050656;28;20064;-49
2022/04/29 08:30:31;;;;;;;9.77;4.75;;;10.80;99.90;;;;;;5048627;28;20143;-49
2022/04/29 08:32:59;;;;;;;9.85;4.60;;;10.60;99.90;;;;;;5047514;28;20123;-46
2022/04/29 08:35:25;;;;;;;9.98;4.70;;;10.70;99.90;;;;;;5047202;28;20443;-46
2022/04/29 08:37:54;;;;;;;11.13;4.60;;;10.80;99.90;;;;;;5045056;28;20040;-48
2022/04/29 08:40:20;;;;;;;6.82;4.20;;;10.60;99.90;;;;;;5029680;28;20044;-48
2022/04/29 08:42:46;;;;;;;12.13;4.20;;;10.70;99.90;;;;;;5043343;28;20509;-48
2022/04/29 08:45:13;;;;;;;7.20;4.00;;;10.80;99.90;;;;;;5049353;28;20060;-48
2022/04/29 08:47:41;;;;;;;10.82;4.10;;;11.00;99.90;;;;;;5045455;28;20139;-48
2022/04/29 08:50:10;;;;;;;9.25;4.30;;;11.10;99.90;;;;;;5045007;28;20083;-47
2022/04/29 08:52:36;;;;;;;11.25;3.97;;;11.10;99.90;;;;;;5045193;28;20041;-48
2022/04/29 09:00:32;;;;;;;8.35;3.83;;;11.60;99.90;;;;;;5047089;28;20052;-47
2022/04/29 09:03:00;;;;;;;6.85;3.67;;;11.90;99.90;;;;;;5044674;28;20041;-49
2022/04/29 09:05:26;;;;;;;9.35;3.50;;;11.90;99.90;;;;;;5043994;28;20036;-48
2022/04/29 09:08:00;;;;;;;9.57;3.47;;;11.90;99.90;;;;;;5042465;28;20036;-49
2022/04/29 09:10:28;;;;;;;8.15;3.60;;;12.20;99.90;;;;;;5044489;28;20025;-49
2022/04/29 09:12:55;;;;;;;7.25;3.40;;;12.50;99.90;;;;;;5046934;28;20036;-49
2022/04/29 09:15:21;;;;;;;12.05;3.75;;;12.60;99.90;;;;;;5045247;28;20037;-49
2022/04/29 09:17:49;;;;;;;7.75;3.22;;;12.60;99.90;;;;;;5048180;28;20033;-46
2022/04/29 09:20:19;;;;;;;10.10;3.45;;;12.40;99.90;;;;;;5045584;28;20037;-49
2022/04/29 09:22:50;;;;;;;7.82;3.55;;;12.20;99.90;;;;;;5044532;28;20120;-47
2022/04/29 09:25:17;;;;;;;8.85;3.67;;;12.20;99.90;;;;;;5049983;28;20029;-48
2022/04/29 09:27:58;;;;;;;9.02;3.60;;;12.20;99.90;;;;;;5048642;28;20407;-51
2022/04/29 09:30:53;;;;;;;7.55;3.72;;;12.00;99.90;;;;;;5049175;28;20041;-48
2022/04/29 09:33:21;;;;;;;6.93;2.95;;;11.80;99.90;;;;;;5049550;28;20052;-48
2022/04/29 09:35:49;;;;;;;9.57;3.67;;;11.60;99.90;;;;;;5049448;28;20033;-47
2022/04/29 09:41:00;;;;;;;7.85;3.75;;;11.50;99.90;;;;;;5049200;28;20051;-51
2022/04/29 09:43:34;;;;;;;10.30;4.07;;;11.50;99.90;;;;;;5047061;28;20035;-49
2022/04/29 09:46:17;;;;;;;7.10;3.63;;;11.70;99.90;;;;;;5047453;28;20132;-49
2022/04/29 09:48:52;;;;;;;7.82;3.60;;;11.60;99.90;;;;;;5048641;28;20661;-47
2022/04/29 09:51:49;;;;;;;5.82;3.45;;;11.60;99.90;;;;;;5052016;28;20087;-48
2022/04/29 09:54:35;;;;;;;9.40;3.78;;;11.50;99.90;;;;;;5048385;28;20037;-46
2022/04/29 09:57:15;;;;;;;8.73;3.88;;;11.50;99.90;;;;;;5046611;28;20116;-48
2022/04/29 09:59:46;;;;;;;6.53;3.60;;;11.50;99.90;;;;;;5049143;28;20391;-50
2022/04/29 10:02:23;;;;;;;7.18;3.80;;;11.50;99.90;;;;;;5050540;28;20452;-47
2022/04/29 10:04:51;;;;;;;10.05;3.83;;;11.40;99.90;;;;;;5050888;28;20041;-49
2022/04/29 10:07:21;;;;;;;9.35;4.00;;;11.60;99.90;;;;;;5049397;28;20538;-46
2022/04/29 10:09:49;;;;;;;8.65;3.85;;;11.30;99.90;;;;;;5049211;28;20044;-47
2022/04/29 10:12:17;;;;;;;10.80;3.78;;;11.50;99.90;;;;;;5046286;28;20049;-47
2022/04/29 10:14:48;;;;;;;9.35;3.80;;;11.60;99.90;;;;;;5052150;28;20415;-48
2022/04/29 10:22:51;;;;;;;9.05;4.22;;;11.50;99.90;;;;;;5048546;28;20131;-46
2022/04/29 10:25:22;;;;;;;8.27;3.80;;;11.60;99.90;;;;;;5050730;28;20044;-48
2022/04/29 10:27:53;;;;;;;11.68;4.35;;;11.70;99.90;;;;;;5051344;28;20533;-50
2022/04/29 10:30:35;;;;;;;9.43;3.78;;;11.80;99.90;;;;;;5052564;28;20032;-47
2022/04/29 10:33:05;;;;;;;9.60;4.10;;;12.00;99.90;;;;;;5051660;28;20113;-49
2022/04/29 10:35:40;;;;;;;9.50;3.80;;;12.10;99.90;;;;;;5052713;28;20041;-50
2022/04/29 10:38:25;;;;;;;14.25;4.30;;;12.10;99.90;;;;;;5052787;28;20492;-50
2022/04/29 10:41:21;;;;;;;6.65;3.63;;;12.10;99.90;;;;;;5052359;28;20048;-47
2022/04/29 10:43:53;;;;;;;9.93;3.90;;;12.10;99.90;;;;;;5035715;28;20534;-46
2022/04/29 10:46:20;;;;;;;5.97;3.42;;;11.90;99.90;;;;;;5050204;28;20097;-51
2022/04/29 10:48:48;;;;;;;9.45;3.53;;;12.00;99.90;;;;;;5051750;28;20530;-51
2022/04/29 10:51:25;;;;;;;10.48;3.35;;;12.00;99.90;;;;;;5050534;28;20040;-47
2022/04/29 10:53:56;;;;;;;7.63;3.35;;;12.00;99.90;;;;;;5052636;28;20099;-51
2022/04/29 10:56:30;;;;;;;8.27;3.13;;;12.10;99.90;;;;;;5051372;28;20054;-50
2022/04/29 10:59:15;;;;;;;8.82;3.38;;;12.20;99.90;;;;;;5050492;28;20041;-49
2022/04/29 11:02:05;;;;;;;6.63;2.88;;;12.40;99.90;;;;;;5050950;28;20036;-49
2022/04/29 11:04:31;;;;;;;6.05;2.90;;;12.40;99.90;;;;;;5052813;28;20093;-47
2022/04/29 11:06:57;;;;;;;9.63;2.80;;;12.50;99.90;;;;;;5041834;28;20062;-50
2022/04/29 11:09:30;;;;;;;10.82;2.97;;;12.60;99.90;;;;;;5049553;28;20510;-51
2022/04/29 11:11:59;;;;;;;7.15;2.72;;;12.50;99.90;;;;;;5034121;28;20056;-51
2022/04/29 11:14:25;;;;;;;13.52;3.40;;;12.40;99.90;;;;;;5052252;28;20033;-50
2022/04/29 11:16:58;;;;;;;6.38;2.90;;;12.50;99.90;;;;;;5034455;28;20036;-49
2022/04/29 11:19:28;;;;;;;6.63;2.97;;;12.40;99.90;;;;;;5052492;28;20049;-49
2022/04/29 11:24:44;;;;;;;6.45;2.63;;;12.70;99.90;;;;;;5048638;28;20118;-52
2022/04/29 11:27:10;;;;;;;9.07;2.92;;;12.40;99.90;;;;;;5051165;28;20098;-47
2022/04/29 11:29:43;;;;;;;4.55;2.45;;;12.60;99.90;;;;;;5034088;28;20128;-51
2022/04/29 11:32:09;;;;;;;9.13;3.00;;;12.70;99.90;;;;;;5052043;28;20049;-48
2022/04/29 11:34:35;;;;;;;8.90;2.95;;;12.60;99.90;;;;;;5051153;28;20760;-47
2022/04/29 11:37:01;;;;;;;13.95;3.30;;;12.60;99.90;;;;;;5049691;28;20044;-49
2022/04/29 11:39:33;;;;;;;7.95;2.67;;;12.70;99.90;;;;;;5053678;28;20041;-49
2022/04/29 11:41:59;;;;;;;6.43;2.50;;;12.70;99.90;;;;;;5050936;28;20033;-48
2022/04/29 11:44:40;;;;;;;8.60;2.58;;;12.50;99.90;;;;;;5028862;28;20041;-48
2022/04/29 11:47:06;;;;;;;9.23;2.65;;;12.50;99.90;;;;;;5049937;28;20463;-46
2022/04/29 11:49:34;;;;;;;7.28;2.58;;;12.80;99.90;;;;;;5050323;28;20387;-49
2022/04/29 11:52:20;;;;;;;7.20;2.50;;;12.90;99.90;;;;;;5050901;28;20072;-50
2022/04/29 11:55:23;;;;;;;8.75;2.45;;;13.00;99.90;;;;;;5050063;28;20044;-49
2022/04/29 11:57:54;;;;;;;4.70;2.25;;;12.80;99.90;;;;;;5042958;28;20053;-49
2022/04/29 12:00:29;;;;;;;5.25;2.28;;;12.70;99.90;;;;;;5050070;28;20098;-46
2022/04/29 12:02:56;;;;;;;5.78;2.28;;;12.70;99.90;;;;;;5048323;28;20036;-50
2022/04/29 12:05:23;;;;;;;7.05;2.40;;;12.80;99.90;;;;;;5048689;28;20119;-48
2022/04/29 12:07:49;;;;;;;7.55;2.75;;;12.90;99.90;;;;;;5049871;28;20037;-49
2022/04/29 12:10:27;;;;;;;6.35;2.35;;;12.80;99.90;;;;;;5047461;28;20037;-49
2022/04/29 12:12:56;;;;;;;7.60;2.60;;;12.80;99.90;;;;;;5050827;28;20063;-47
2022/04/29 12:15:31;;;;;;;9.05;2.55;;;13.00;99.90;;;;;;5051271;28;20095;-47
2022/04/29 12:18:01;;;;;;;;;;;12.80;99.90;;;;;;5049543;28;20048;-47
2022/04/29 12:20:27;;;;;;;7.55;2.75;;;12.60;99.90;;;;;;5048680;28;19925;-48
2022/04/29 12:22:53;;;;;;;8.18;2.85;;;12.60;99.90;;;;;;5049564;28;20090;-49
2022/04/29 12:25:42;;;;;;;7.90;2.92;;;12.50;99.90;;;;;;5049453;28;20045;-49
2022/04/29 12:28:25;;;;;;;7.82;3.05;;;12.60;99.90;;;;;;5050180;28;20120;-47
2022/04/29 12:37:08;;;;;;;7.13;3.00;;;12.60;99.90;;;;;;5050603;28;20064;-52
2022/04/29 12:39:40;;;;;;;9.00;3.40;;;12.40;99.90;;;;;;5050758;28;20090;-48
2022/04/29 12:42:10;;;;;;;6.88;3.03;;;12.40;99.90;;;;;;5050805;28;20485;-49
2022/04/29 12:47:43;;;;;;;7.88;3.28;;;12.50;99.90;;;;;;5050800;28;20079;-49
2022/04/29 12:50:19;;;;;;;8.75;3.15;;;12.50;99.90;;;;;;5050020;28;20055;-51
2022/04/29 12:52:50;;;;;;;8.68;3.55;;;12.60;99.90;;;;;;5051033;28;20143;-52
2022/04/29 12:55:16;;;;;;;7.72;3.90;;;12.50;99.90;;;;;;5050334;28;20067;-51
2022/04/29 12:57:42;;;;;;;8.32;4.35;;;12.30;99.90;;;;;;5034046;28;20076;-48
2022/04/29 13:00:08;;;;;;;8.45;3.92;;;12.50;99.90;;;;;;5054709;28;20562;-48
2022/04/29 13:02:34;;;;;;;11.07;4.00;;;12.30;99.90;;;;;;5054735;28;20518;-49
2022/04/29 13:04:59;;;;;;;7.63;3.38;;;12.30;99.90;;;;;;5054689;28;20037;-52
2022/04/29 13:07:26;;;;;;;8.57;3.97;;;12.30;99.90;;;;;;5053525;28;20117;-50
2022/04/29 13:09:51;;;;;;;8.45;4.40;;;12.20;99.90;;;;;;5054627;28;20036;-48
2022/04/29 13:12:18;;;;;;;8.75;3.65;;;12.40;99.90;;;;;;5054202;28;20498;-49
2022/04/29 13:14:44;;;;;;;8.98;4.35;;;12.40;99.90;;;;;;5054385;28;20499;-47
2022/04/29 13:17:09;;;;;;;8.15;4.13;;;12.60;99.90;;;;;;5054402;28;20041;-49
2022/04/29 13:19:37;;;;;;;11.07;4.15;;;12.40;99.90;;;;;;5053976;28;20092;-47
2022/04/29 13:22:03;;;;;;;9.95;3.97;;;12.50;99.90;;;;;;5036745;28;20481;-49
2022/04/29 13:24:28;;;;;;;7.43;4.13;;;12.70;99.90;;;;;;5054149;28;20095;-49
2022/04/29 13:26:54;;;;;;;8.23;4.07;;;12.70;99.90;;;;;;5054369;28;20098;-47
2022/04/29 13:29:20;;;;;;;7.20;3.97;;;12.90;99.90;;;;;;5054337;28;20044;-49